aviador You're here:

LFKC Decoded Metar

CALVI in CORSE ISL.
Report Time2017-08-24 08:30:00
UTC Time2017-08-24 08:50:16
Flight Rules vfr VFR
Wind340° at 07 kt
W.Decomp.*RWY 36: 6.5 kt HW 2.5 kt LCW
W.Rank340° ranks 7
Current wind is above 340° avg. (6.4)
Visibility9999 m
Phenomena:N/A
Clouds:N/A
Expected CloudBase > 2,800 ft AGL from Temp-Dew spread
CeilingNone
Temp26°C (ISA +11)
Dew Point19°C (65% RH)
QNH1020 hPa
Density Alt1,562 ft
Elevation190 ft
Report Wrong Elevation
Raw Report
LFKC 240830Z AUTO 34007KT 310V010 CAVOK 26/19 Q1020 NOSIG=

Extra information for LFKC:More info

Metar Taf Metar & Taf Last 4 Metars F.Rules Stats Wind Profile Meteogram Temp Stats Airport Information Weather charts Add Link Nearby VenuesMetar ALERT Operation Metar Decoded Social comments